Weather at Hyde County Airport

Public forecast

Using degrees Fahrenheit for public forecast. Weather courtesy of forecast.io.

Current aviation weather report (METAR) for Hyde County Airport

Retrieved 2020/10/01 11:55 UTC (1 hour ago):

K7W6 011155Z AUTO 00000KT 10SM CLR 13/13 A3002 RMK AO2 T01320125 10132 20102

Closest aviation forecast (TAF) to Hyde County Airport

Closest forecast is Elizabeth City Regional Airport & Coast Guard Air Station, 43.3 nm (80.1 km) NNW. Retrieved 2020/10/01 12:30 UTC (26 minutes ago):

TAF TAF KECG 011124Z 0112/0212 23008KT P6SM SKC FM012100 19007KT P6SM SCT050 FM020900 32008KT P6SM BKN025